createdAt,value
2022-10-04T00:00:47.644Z,101209.56
2022-10-04T00:03:19.819Z,101217.47
2022-10-04T00:05:49.178Z,101210.53
2022-10-04T00:08:25.479Z,101145.03
2022-10-04T00:11:02.817Z,101198.16
2022-10-04T00:13:30.330Z,101193.78
2022-10-04T00:15:57.786Z,101187.72
2022-10-04T00:18:30.099Z,101199.09
2022-10-04T00:21:02.707Z,101190.59
2022-10-04T00:23:42.096Z,101197.31
2022-10-04T00:26:14.210Z,101100.84
2022-10-04T00:28:45.487Z,101127.66
2022-10-04T00:31:18.113Z,101205.50
2022-10-04T00:33:46.060Z,101198.44
2022-10-04T00:36:41.666Z,101195.69
2022-10-04T00:39:18.413Z,101121.53
2022-10-04T00:41:58.441Z,101093.81
2022-10-04T00:44:29.357Z,101180.91
2022-10-04T00:46:56.904Z,101173.00
2022-10-04T00:49:25.324Z,101172.13
2022-10-04T00:51:54.088Z,101109.34
2022-10-04T00:54:24.043Z,101180.09
2022-10-04T00:56:53.123Z,101111.19
2022-10-04T00:59:28.995Z,101175.66
2022-10-04T01:01:59.334Z,101178.38
2022-10-04T01:04:34.729Z,101172.19
2022-10-04T01:07:03.039Z,101174.94
2022-10-04T01:09:32.361Z,101174.16
2022-10-04T01:12:02.970Z,101174.00
2022-10-04T01:14:33.457Z,101173.16
2022-10-04T01:17:00.899Z,101169.69
2022-10-04T01:19:31.100Z,101154.75
2022-10-04T01:21:59.480Z,101157.47
2022-10-04T01:24:28.212Z,101153.03
2022-10-04T01:26:55.689Z,101130.16
2022-10-04T01:29:26.024Z,101130.03
2022-10-04T01:31:54.426Z,101130.91
2022-10-04T01:34:22.678Z,101135.28
2022-10-04T01:36:52.406Z,101132.34
2022-10-04T01:39:21.171Z,101139.81
2022-10-04T01:41:53.884Z,101144.19
2022-10-04T01:44:25.675Z,101137.22
2022-10-04T01:46:53.562Z,101143.38
2022-10-04T01:49:21.999Z,101106.28
2022-10-04T01:51:55.202Z,101080.34
2022-10-04T01:54:24.895Z,101124.16
2022-10-04T01:56:57.303Z,101129.47
2022-10-04T01:59:26.597Z,101127.72
2022-10-04T02:01:56.652Z,101088.78
2022-10-04T02:04:27.185Z,101051.69
2022-10-04T02:06:56.446Z,101118.91
2022-10-04T02:09:25.001Z,101099.88
2022-10-04T02:11:53.980Z,101109.19
2022-10-04T02:14:22.566Z,101112.06
2022-10-04T02:16:52.116Z,101114.59
2022-10-04T02:19:19.875Z,101114.50
2022-10-04T02:21:47.560Z,101094.84
2022-10-04T02:24:16.021Z,101115.53
2022-10-04T02:26:43.497Z,101116.41
2022-10-04T02:29:12.283Z,101108.56
2022-10-04T02:31:57.447Z,101103.19
2022-10-04T02:34:24.862Z,101098.78
2022-10-04T02:36:52.462Z,101077.47
2022-10-04T02:39:22.879Z,101065.53
2022-10-04T02:41:51.817Z,101102.53
2022-10-04T02:44:21.690Z,101102.53
2022-10-04T02:46:51.317Z,101102.47
2022-10-04T02:49:22.032Z,101098.16
2022-10-04T02:51:50.953Z,101085.78
2022-10-04T02:54:21.607Z,101023.09
2022-10-04T02:56:52.390Z,101080.41
2022-10-04T02:59:21.203Z,101092.03
2022-10-04T03:01:51.436Z,101085.94
2022-10-04T03:04:21.003Z,101082.50
2022-10-04T03:06:48.828Z,101083.34
2022-10-04T03:09:16.471Z,101083.19
2022-10-04T03:11:44.165Z,101070.94
2022-10-04T03:14:14.724Z,101072.56
2022-10-04T03:16:44.389Z,101027.88
2022-10-04T03:19:11.859Z,101060.38
2022-10-04T03:21:39.929Z,101069.22
2022-10-04T03:24:07.486Z,101067.34
2022-10-04T03:26:37.675Z,101068.34
2022-10-04T03:29:07.280Z,101018.22
2022-10-04T03:31:34.724Z,101020.50
2022-10-04T03:34:03.497Z,101073.88
2022-10-04T03:36:30.950Z,101060.53
2022-10-04T03:38:58.379Z,101064.13
2022-10-04T03:41:26.198Z,101053.50
2022-10-04T03:43:54.575Z,101055.13
2022-10-04T03:46:23.091Z,101051.81
2022-10-04T03:48:52.048Z,101051.91
2022-10-04T03:51:24.000Z,100997.53
2022-10-04T03:53:52.493Z,101009.75
2022-10-04T03:56:21.463Z,101054.47
2022-10-04T03:58:48.921Z,101047.59
2022-10-04T04:01:21.494Z,101050.13
2022-10-04T04:03:56.072Z,101044.94
2022-10-04T04:06:24.836Z,101044.16
2022-10-04T04:08:53.739Z,101042.28
2022-10-04T04:11:23.433Z,101037.78
2022-10-04T04:13:52.771Z,100944.56
2022-10-04T04:16:20.518Z,101000.06
2022-10-04T04:18:47.948Z,101036.16
2022-10-04T04:21:16.135Z,101044.28
2022-10-04T04:23:48.513Z,101039.13
2022-10-04T04:26:19.649Z,101031.44
2022-10-04T04:28:48.972Z,101036.97
2022-10-04T04:31:19.410Z,101039.84
2022-10-04T04:33:48.791Z,100989.28
2022-10-04T04:36:17.014Z,101013.16
2022-10-04T04:38:59.727Z,100984.78
2022-10-04T04:41:27.437Z,101008.69
2022-10-04T04:43:54.857Z,101022.47
2022-10-04T04:46:27.537Z,101020.88
2022-10-04T04:49:01.140Z,101020.81
2022-10-04T04:51:28.603Z,100991.44
2022-10-04T04:53:57.340Z,101011.88
2022-10-04T04:56:26.552Z,101019.75
2022-10-04T04:58:54.407Z,101019.63
2022-10-04T05:01:24.390Z,100967.16
2022-10-04T05:04:02.099Z,101016.28
2022-10-04T05:06:34.440Z,101011.19
2022-10-04T05:09:03.187Z,101018.31
2022-10-04T05:11:31.861Z,101022.47
2022-10-04T05:14:00.664Z,101006.91
2022-10-04T05:16:29.240Z,100991.66
2022-10-04T05:18:56.798Z,100976.16
2022-10-04T05:21:26.228Z,101025.59
2022-10-04T05:23:53.644Z,101044.56
2022-10-04T05:26:31.236Z,101038.41
2022-10-04T05:29:00.782Z,101043.88
2022-10-04T05:31:36.623Z,100966.16
2022-10-04T05:34:04.915Z,101030.25
2022-10-04T05:37:01.880Z,101034.81
2022-10-04T05:39:30.385Z,101025.22
2022-10-04T05:42:02.511Z,100944.94
2022-10-04T05:44:30.571Z,101025.91
2022-10-04T05:46:58.403Z,101024.19
2022-10-04T05:49:26.401Z,101039.31
2022-10-04T05:51:55.031Z,101029.56
2022-10-04T05:54:23.388Z,101033.31
2022-10-04T05:57:08.489Z,100992.94
2022-10-04T05:59:52.052Z,101036.66
2022-10-04T06:02:25.181Z,101043.88
2022-10-04T06:04:59.912Z,101041.06
2022-10-04T06:07:30.981Z,101041.13
2022-10-04T06:10:20.739Z,100985.47
2022-10-04T06:12:53.156Z,101046.72
2022-10-04T06:15:27.957Z,101055.56
2022-10-04T06:18:05.986Z,101057.28
2022-10-04T06:21:03.087Z,101067.97
2022-10-04T06:23:30.503Z,101067.03
2022-10-04T06:25:59.404Z,101069.69
2022-10-04T06:28:30.601Z,101073.91
2022-10-04T06:31:10.957Z,101018.53
2022-10-04T06:33:50.420Z,101079.16
2022-10-04T06:36:30.766Z,101061.31
2022-10-04T06:39:19.229Z,101079.16
2022-10-04T06:41:56.214Z,101041.06
2022-10-04T06:44:32.241Z,101072.13
2022-10-04T06:47:04.724Z,101086.91
2022-10-04T06:49:34.437Z,101068.19
2022-10-04T06:52:30.650Z,101067.28
2022-10-04T06:55:21.877Z,101078.59
2022-10-04T06:58:09.869Z,101064.69
2022-10-04T07:00:41.105Z,101064.63
2022-10-04T07:03:12.269Z,101007.44
2022-10-04T07:05:41.024Z,101048.41
2022-10-04T07:08:30.922Z,101048.03
2022-10-04T07:11:00.520Z,101038.84
2022-10-04T07:13:40.867Z,101035.03
2022-10-04T07:16:13.347Z,101042.78
2022-10-04T07:18:45.117Z,101033.97
2022-10-04T07:21:13.825Z,101040.25
2022-10-04T07:23:45.747Z,101042.22
2022-10-04T07:26:19.342Z,101041.56
2022-10-04T07:29:04.592Z,101036.13
2022-10-04T07:31:35.218Z,100983.50
2022-10-04T07:34:03.387Z,101050.13
2022-10-04T07:36:32.976Z,101048.16
2022-10-04T07:39:01.970Z,101044.53
2022-10-04T07:41:30.926Z,101042.63
2022-10-04T07:43:59.390Z,101040.84
2022-10-04T07:46:38.540Z,101055.78
2022-10-04T07:49:05.924Z,101055.78
2022-10-04T07:51:35.206Z,101059.31
2022-10-04T07:54:03.381Z,101058.13
2022-10-04T07:56:33.909Z,101061.38
2022-10-04T07:59:08.430Z,101060.44
2022-10-04T08:01:39.299Z,101040.84
2022-10-04T08:04:15.268Z,101010.50
2022-10-04T08:06:56.296Z,101062.78
2022-10-04T08:09:34.875Z,101010.66
2022-10-04T08:12:07.035Z,101049.34
2022-10-04T08:14:40.918Z,101050.94
2022-10-04T08:17:15.755Z,101043.03
2022-10-04T08:19:48.412Z,101036.63
2022-10-04T08:22:22.135Z,101040.09
2022-10-04T08:24:54.383Z,101024.44
2022-10-04T08:27:36.731Z,101033.28
2022-10-04T08:30:11.176Z,100992.38
2022-10-04T08:32:52.882Z,101010.31
2022-10-04T08:35:37.464Z,101007.41
2022-10-04T08:38:21.128Z,101029.75
2022-10-04T08:41:19.005Z,101012.50
2022-10-04T08:44:23.097Z,100994.03
2022-10-04T08:47:13.931Z,100976.66
2022-10-04T08:50:04.099Z,101027.84
2022-10-04T08:52:42.062Z,101021.47
2022-10-04T08:55:46.963Z,101020.19
2022-10-04T08:58:23.402Z,100951.22
2022-10-04T09:00:58.472Z,100950.59
2022-10-04T09:03:49.876Z,101020.03
2022-10-04T09:06:38.770Z,101012.72
2022-10-04T09:10:03.194Z,101016.41
2022-10-04T09:12:47.118Z,100999.38
2022-10-04T09:15:35.477Z,101018.38
2022-10-04T09:18:05.316Z,100933.19
2022-10-04T09:20:43.144Z,101001.00
2022-10-04T09:23:37.239Z,101019.00
2022-10-04T09:26:11.185Z,100982.00
2022-10-04T09:29:04.750Z,100952.59
2022-10-04T09:31:47.749Z,100986.59
2022-10-04T09:34:23.838Z,101013.09
2022-10-04T09:37:23.080Z,101011.91
2022-10-04T09:40:15.860Z,101005.56
2022-10-04T09:43:14.164Z,101002.66
2022-10-04T09:45:50.865Z,100975.81
2022-10-04T09:48:26.239Z,101004.03
2022-10-04T09:51:16.825Z,100945.66
2022-10-04T09:53:54.507Z,100999.75
2022-10-04T09:56:34.137Z,100944.53
2022-10-04T09:59:23.434Z,100962.69
2022-10-04T10:04:26.913Z,100950.56
2022-10-04T10:07:15.036Z,100934.69
2022-10-04T10:10:03.066Z,100987.84
2022-10-04T10:12:58.627Z,100968.09
2022-10-04T10:15:28.724Z,100920.84
2022-10-04T10:17:56.587Z,100981.22
2022-10-04T10:20:35.496Z,100979.72
2022-10-04T10:23:21.723Z,100974.91
2022-10-04T10:25:59.028Z,100875.41
2022-10-04T10:28:40.639Z,100968.78
2022-10-04T10:31:21.504Z,100967.56
2022-10-04T10:34:14.965Z,100959.78
2022-10-04T10:36:50.169Z,100929.75
2022-10-04T10:39:42.450Z,100892.22
2022-10-04T10:42:39.038Z,100943.41
2022-10-04T10:45:16.468Z,100943.13
2022-10-04T10:47:46.330Z,100943.03
2022-10-04T10:50:25.500Z,100886.34
2022-10-04T10:53:17.473Z,100924.34
2022-10-04T10:56:17.685Z,100943.22
2022-10-04T10:58:55.952Z,100938.94
2022-10-04T11:01:47.216Z,100881.31
2022-10-04T11:04:36.249Z,100855.53
2022-10-04T11:07:13.993Z,100857.66
2022-10-04T11:09:52.607Z,100924.16
2022-10-04T11:12:34.677Z,100865.13
2022-10-04T11:15:38.881Z,100921.19
2022-10-04T11:18:45.053Z,100921.19
2022-10-04T11:21:45.941Z,100925.59
2022-10-04T11:24:32.331Z,100921.97
2022-10-04T11:27:17.189Z,100919.41
2022-10-04T11:29:55.139Z,100872.09
2022-10-04T11:32:41.288Z,100921.28
2022-10-04T11:35:50.228Z,100928.06
2022-10-04T11:38:30.976Z,100928.63
2022-10-04T11:41:10.814Z,100902.09
2022-10-04T11:43:48.191Z,100908.59
2022-10-04T11:46:35.967Z,100924.13
2022-10-04T11:49:11.133Z,100861.50
2022-10-04T11:52:04.423Z,100914.69
2022-10-04T11:54:51.969Z,100912.22
2022-10-04T11:57:27.635Z,100838.34
2022-10-04T12:00:00.772Z,100909.53
2022-10-04T12:02:56.493Z,100904.41
2022-10-04T12:05:53.793Z,100879.44
2022-10-04T12:08:25.792Z,100827.78
2022-10-04T12:11:25.186Z,100819.22
2022-10-04T12:13:59.624Z,100889.50
2022-10-04T12:16:38.230Z,100871.94
2022-10-04T12:19:27.784Z,100785.19
2022-10-04T12:22:15.682Z,100875.97
2022-10-04T12:25:07.939Z,100886.66
2022-10-04T12:28:11.479Z,100781.88
2022-10-04T12:30:44.495Z,100859.03
2022-10-04T12:33:13.983Z,100857.88
2022-10-04T12:35:57.317Z,100859.59
2022-10-04T12:38:55.155Z,100848.09
2022-10-04T12:41:31.135Z,100844.56
2022-10-04T12:44:07.757Z,100840.00
2022-10-04T12:46:39.330Z,100841.59
2022-10-04T12:49:21.610Z,100826.19
2022-10-04T12:51:55.404Z,100831.97
2022-10-04T12:54:33.381Z,100815.41
2022-10-04T12:57:07.256Z,100756.84
2022-10-04T12:59:48.379Z,100765.16
2022-10-04T13:02:23.353Z,100823.13
2022-10-04T13:04:52.437Z,100822.25
2022-10-04T13:07:31.702Z,100735.53
2022-10-04T13:10:24.031Z,100796.06
2022-10-04T13:13:11.068Z,100801.50
2022-10-04T13:18:30.452Z,100741.13
2022-10-04T13:21:01.120Z,100806.06
2022-10-04T13:23:37.620Z,100801.28
2022-10-04T13:26:16.357Z,100797.47
2022-10-04T13:28:47.860Z,100795.75
2022-10-04T13:31:21.748Z,100796.59
2022-10-04T13:33:52.076Z,100786.00
2022-10-04T13:36:21.038Z,100788.50
2022-10-04T13:39:16.995Z,100778.50
2022-10-04T13:41:57.218Z,100774.06
2022-10-04T13:44:51.650Z,100772.34
2022-10-04T13:47:34.626Z,100725.97
2022-10-04T13:50:09.971Z,100689.41
2022-10-04T13:52:59.996Z,100785.53
2022-10-04T13:55:46.860Z,100770.88
2022-10-04T13:58:22.450Z,100764.25
2022-10-04T14:01:05.900Z,100673.88
2022-10-04T14:03:42.345Z,100699.22
2022-10-04T14:06:27.892Z,100767.03
2022-10-04T14:09:23.181Z,100731.00
2022-10-04T14:12:09.885Z,100705.31
2022-10-04T14:15:18.768Z,100754.44
2022-10-04T14:18:27.536Z,100690.78
2022-10-04T14:21:39.826Z,100742.47
2022-10-04T14:24:45.815Z,100740.66
2022-10-04T14:27:37.297Z,100668.41
2022-10-04T14:30:23.193Z,100738.41
2022-10-04T14:33:32.578Z,100735.00
2022-10-04T14:36:29.573Z,100736.41
2022-10-04T14:39:18.868Z,100733.53
2022-10-04T14:42:11.601Z,100730.75
2022-10-04T14:45:07.882Z,100733.09
2022-10-04T14:48:07.137Z,100721.13
2022-10-04T14:50:41.192Z,100720.81
2022-10-04T14:53:14.932Z,100723.50
2022-10-04T14:56:09.137Z,100728.41
2022-10-04T14:58:41.013Z,100729.72
2022-10-04T15:01:22.609Z,100726.63
2022-10-04T15:04:01.297Z,100726.63
2022-10-04T15:06:36.933Z,100732.28
2022-10-04T15:09:20.929Z,100730.38
2022-10-04T15:12:21.458Z,100748.00
2022-10-04T15:14:42.689Z,100720.09
2022-10-04T15:17:12.514Z,100740.09
2022-10-04T15:20:00.982Z,100742.03
2022-10-04T15:22:29.575Z,100737.63
2022-10-04T15:24:57.089Z,100676.78
2022-10-04T15:27:47.164Z,100735.59
2022-10-04T15:30:19.312Z,100731.22
2022-10-04T15:32:51.034Z,100718.06
2022-10-04T15:35:22.970Z,100714.09
2022-10-04T15:37:53.485Z,100709.53
2022-10-04T15:40:30.515Z,100637.84
2022-10-04T15:43:07.313Z,100689.94
2022-10-04T15:46:15.290Z,100705.13
2022-10-04T15:48:57.630Z,100698.16
2022-10-04T15:51:42.283Z,100697.63
2022-10-04T15:54:15.344Z,100654.84
2022-10-04T15:56:46.333Z,100706.94
2022-10-04T15:59:41.293Z,100703.63
2022-10-04T16:02:22.365Z,100709.16
2022-10-04T16:04:58.528Z,100711.84
2022-10-04T16:07:39.727Z,100714.53
2022-10-04T16:10:18.939Z,100624.84
2022-10-04T16:13:26.162Z,100714.31
2022-10-04T16:16:26.344Z,100715.47
2022-10-04T16:18:55.605Z,100719.44
2022-10-04T16:21:29.920Z,100719.63
2022-10-04T16:24:30.503Z,100727.00
2022-10-04T16:27:13.881Z,100700.78
2022-10-04T16:29:44.906Z,100660.59
2022-10-04T16:32:13.312Z,100712.78
2022-10-04T16:34:48.833Z,100647.25
2022-10-04T16:37:22.182Z,100715.09
2022-10-04T16:40:00.692Z,100715.28
2022-10-04T16:42:29.858Z,100728.84
2022-10-04T16:44:59.692Z,100659.56
2022-10-04T16:47:29.278Z,100720.38
2022-10-04T16:49:57.837Z,100624.00
2022-10-04T16:52:49.526Z,100730.50
2022-10-04T16:55:22.500Z,100670.84
2022-10-04T16:58:22.476Z,100735.38
2022-10-04T17:00:49.988Z,100730.44
2022-10-04T17:03:20.333Z,100688.69
2022-10-04T17:06:02.911Z,100732.59
2022-10-04T17:08:49.763Z,100633.97
2022-10-04T17:11:44.683Z,100724.97
2022-10-04T17:14:32.186Z,100692.91
2022-10-04T17:17:01.490Z,100731.53
2022-10-04T17:19:32.703Z,100657.22
2022-10-04T17:22:06.979Z,100729.19
2022-10-04T17:24:43.140Z,100721.75
2022-10-04T17:27:26.035Z,100728.63
2022-10-04T17:30:04.384Z,100666.19
2022-10-04T17:32:36.278Z,100727.09
2022-10-04T17:35:13.179Z,100733.50
2022-10-04T17:37:44.540Z,100730.94
2022-10-04T17:40:28.525Z,100736.38
2022-10-04T17:43:00.013Z,100691.38
2022-10-04T17:45:45.571Z,100727.78
2022-10-04T17:48:32.623Z,100716.00
2022-10-04T17:51:19.492Z,100728.84
2022-10-04T17:54:06.152Z,100663.88
2022-10-04T17:56:37.690Z,100648.38
2022-10-04T17:59:08.526Z,100732.59
2022-10-04T18:01:37.118Z,100725.63
2022-10-04T18:04:09.291Z,100729.25
2022-10-04T18:06:38.706Z,100737.34
2022-10-04T18:09:09.888Z,100734.78
2022-10-04T18:11:44.041Z,100679.16
2022-10-04T18:14:13.186Z,100670.88
2022-10-04T18:16:47.464Z,100729.63
2022-10-04T18:19:37.861Z,100731.53
2022-10-04T18:22:10.947Z,100728.97
2022-10-04T18:24:38.391Z,100735.25
2022-10-04T18:27:18.347Z,100742.31
2022-10-04T18:30:00.399Z,100744.31
2022-10-04T18:32:35.604Z,100747.09
2022-10-04T18:35:08.266Z,100743.66
2022-10-04T18:37:37.129Z,100742.78
2022-10-04T18:40:11.890Z,100745.44
2022-10-04T18:42:43.004Z,100671.53
2022-10-04T18:45:20.158Z,100725.44
2022-10-04T18:47:50.648Z,100735.91
2022-10-04T18:50:23.917Z,100680.59
2022-10-04T18:53:08.172Z,100740.38
2022-10-04T18:55:40.429Z,100741.44
2022-10-04T18:58:49.276Z,100745.06
2022-10-04T19:01:45.558Z,100736.19
2022-10-04T19:04:15.249Z,100727.72
2022-10-04T19:06:42.833Z,100758.69
2022-10-04T19:09:14.160Z,100763.16
2022-10-04T19:11:44.090Z,100747.72
2022-10-04T19:14:20.767Z,100753.44
2022-10-04T19:16:51.085Z,100753.53
2022-10-04T19:19:31.992Z,100746.47
2022-10-04T19:22:02.059Z,100700.09
2022-10-04T19:24:45.283Z,100756.50
2022-10-04T19:27:18.186Z,100751.16
2022-10-04T19:29:54.838Z,100751.16
2022-10-04T19:32:27.333Z,100752.09
2022-10-04T19:34:59.252Z,100758.38
2022-10-04T19:37:27.540Z,100766.47
2022-10-04T19:39:59.917Z,100717.31
2022-10-04T19:42:29.366Z,100766.56
2022-10-04T19:45:06.006Z,100766.56
2022-10-04T19:47:41.324Z,100772.88
2022-10-04T19:50:17.647Z,100728.44
2022-10-04T19:52:51.424Z,100787.22
2022-10-04T19:55:22.912Z,100778.38
2022-10-04T19:57:51.884Z,100766.94
2022-10-04T20:00:21.916Z,100766.06
2022-10-04T20:02:49.949Z,100776.84
2022-10-04T20:05:20.031Z,100768.38
2022-10-04T20:07:50.814Z,100771.59
2022-10-04T20:10:24.237Z,100744.75
2022-10-04T20:13:23.369Z,100749.44
2022-10-04T20:15:53.392Z,100739.78
2022-10-04T20:19:04.993Z,100744.28
2022-10-04T20:21:32.768Z,100745.44
2022-10-04T20:24:01.399Z,100731.44
2022-10-04T20:26:53.705Z,100743.59
2022-10-04T20:30:07.464Z,100732.19
2022-10-04T20:32:58.376Z,100740.28
2022-10-04T20:36:09.516Z,100735.88
2022-10-04T20:39:05.881Z,100737.72
2022-10-04T20:42:22.293Z,100732.47
2022-10-04T20:44:54.151Z,100732.75
2022-10-04T20:47:39.184Z,100719.53
2022-10-04T20:50:36.318Z,100650.75
2022-10-04T20:53:05.975Z,100719.53
2022-10-04T20:55:34.866Z,100690.84
2022-10-04T20:58:03.109Z,100726.75
2022-10-04T21:00:34.258Z,100726.75
2022-10-04T21:03:09.589Z,100742.75
2022-10-04T21:05:39.473Z,100742.84
2022-10-04T21:08:31.136Z,100736.53
2022-10-04T21:11:22.410Z,100746.28
2022-10-04T21:13:54.804Z,100732.63
2022-10-04T21:16:41.975Z,100734.25
2022-10-04T21:19:50.133Z,100734.25
2022-10-04T21:22:40.960Z,100732.44
2022-10-04T21:25:31.832Z,100731.41
2022-10-04T21:28:33.596Z,100729.50
2022-10-04T21:31:01.378Z,100642.53
2022-10-04T21:33:28.848Z,100713.53
2022-10-04T21:35:56.269Z,100710.94
2022-10-04T21:38:25.034Z,100709.06
2022-10-04T21:40:52.734Z,100701.44
2022-10-04T21:43:20.164Z,100709.06
2022-10-04T21:45:47.610Z,100707.31
2022-10-04T21:48:15.103Z,100706.56
2022-10-04T21:50:43.417Z,100714.38
2022-10-04T21:53:11.000Z,100704.75
2022-10-04T21:55:39.772Z,100701.25
2022-10-04T21:58:07.223Z,100686.38
2022-10-04T22:00:34.646Z,100690.59
2022-10-04T22:03:02.065Z,100685.34
2022-10-04T22:05:29.516Z,100693.34
2022-10-04T22:07:58.097Z,100691.69
2022-10-04T22:10:25.565Z,100683.72
2022-10-04T22:12:56.755Z,100689.13
2022-10-04T22:15:25.756Z,100706.94
2022-10-04T22:17:53.428Z,100703.41
2022-10-04T22:20:20.848Z,100704.38
2022-10-04T22:22:48.291Z,100710.53
2022-10-04T22:25:16.670Z,100636.72
2022-10-04T22:27:44.107Z,100709.69
2022-10-04T22:30:22.493Z,100707.97
2022-10-04T22:32:49.936Z,100710.81
2022-10-04T22:35:18.638Z,100711.69
2022-10-04T22:37:46.119Z,100704.66
2022-10-04T22:40:16.020Z,100699.50
2022-10-04T22:42:43.438Z,100711.00
2022-10-04T22:45:17.013Z,100716.44
2022-10-04T22:47:45.781Z,100709.38
2022-10-04T22:50:18.264Z,100713.09
2022-10-04T22:52:45.697Z,100720.06
2022-10-04T22:55:14.346Z,100720.13
2022-10-04T22:57:41.806Z,100717.38
2022-10-04T23:00:11.411Z,100654.56
2022-10-04T23:02:38.911Z,100737.00
2022-10-04T23:05:13.124Z,100741.44
2022-10-04T23:07:40.687Z,100730.13
2022-10-04T23:10:08.813Z,100727.53
2022-10-04T23:12:36.303Z,100728.41
2022-10-04T23:15:06.183Z,100724.88
2022-10-04T23:17:35.259Z,100717.84
2022-10-04T23:20:06.887Z,100710.03
2022-10-04T23:22:35.697Z,100701.09
2022-10-04T23:25:03.167Z,100702.03
2022-10-04T23:27:30.732Z,100707.47
2022-10-04T23:29:59.436Z,100701.16
2022-10-04T23:32:26.889Z,100689.78
2022-10-04T23:34:56.974Z,100674.50
2022-10-04T23:37:26.649Z,100690.59
2022-10-04T23:39:55.413Z,100690.03
2022-10-04T23:42:28.703Z,100699.66
2022-10-04T23:44:56.463Z,100702.41
2022-10-04T23:47:24.272Z,100710.50
2022-10-04T23:49:52.908Z,100676.41
2022-10-04T23:52:21.415Z,100714.16
2022-10-04T23:54:49.148Z,100715.00
2022-10-04T23:57:20.851Z,100699.66
2022-10-04T23:59:48.287Z,100713.31
